createdAt,value
2023-03-05T00:00:30.477Z,75.58
2023-03-05T00:03:33.609Z,75.59
2023-03-05T00:06:36.416Z,76.42
2023-03-05T00:09:40.671Z,76.28
2023-03-05T00:12:43.335Z,77.44
2023-03-05T00:15:46.248Z,77.02
2023-03-05T00:18:49.784Z,77.31
2023-03-05T00:21:52.725Z,76.89
2023-03-05T00:24:55.386Z,77.58
2023-03-05T00:27:58.414Z,77.36
2023-03-05T00:31:01.610Z,78.06
2023-03-05T00:34:08.329Z,78.96
2023-03-05T00:37:11.180Z,78.32
2023-03-05T00:40:14.405Z,78.67
2023-03-05T00:43:17.098Z,78.46
2023-03-05T00:46:20.065Z,79.17
2023-03-05T00:49:22.674Z,79.02
2023-03-05T00:52:26.758Z,80.05
2023-03-05T00:55:29.394Z,79.62
2023-03-05T00:58:32.400Z,79.85
2023-03-05T01:01:35.215Z,80.07
2023-03-05T01:04:38.970Z,81.38
2023-03-05T01:07:41.657Z,81.04
2023-03-05T01:10:44.575Z,80.88
2023-03-05T01:13:47.651Z,80.49
2023-03-05T01:16:50.573Z,81.52
2023-03-05T01:19:53.226Z,81.31
2023-03-05T01:22:56.411Z,81.23
2023-03-05T01:25:59.830Z,81.93
2023-03-05T01:29:02.823Z,81.82
2023-03-05T01:32:05.973Z,81.62
2023-03-05T01:35:10.970Z,82.29
2023-03-05T01:38:13.908Z,82.74
2023-03-05T01:41:18.933Z,82.46
2023-03-05T01:44:23.561Z,82.74
2023-03-05T01:47:26.514Z,82.18
2023-03-05T01:50:29.467Z,82.71
2023-03-05T01:53:32.420Z,82.59
2023-03-05T01:56:36.017Z,83.27
2023-03-05T01:59:42.018Z,83.13
2023-03-05T02:02:47.722Z,83.21
2023-03-05T02:05:50.666Z,83.77
2023-03-05T02:08:53.846Z,83.81
2023-03-05T02:11:57.399Z,84.31
2023-03-05T02:15:00.403Z,83.72
2023-03-05T02:18:03.199Z,83.89
2023-03-05T02:21:10.832Z,84.19
2023-03-05T02:24:16.069Z,84.18
2023-03-05T02:27:23.509Z,83.91
2023-03-05T02:30:26.622Z,84.00
2023-03-05T02:33:29.845Z,84.09
2023-03-05T02:36:32.745Z,84.58
2023-03-05T02:39:36.719Z,84.77
2023-03-05T02:42:39.882Z,84.58
2023-03-05T02:45:43.513Z,84.77
2023-03-05T02:48:46.193Z,85.41
2023-03-05T02:51:49.669Z,84.97
2023-03-05T02:54:53.183Z,85.21
2023-03-05T02:57:56.161Z,85.53
2023-03-05T03:00:58.903Z,85.34
2023-03-05T03:04:01.996Z,85.24
2023-03-05T03:07:04.827Z,85.66
2023-03-05T03:10:08.363Z,85.66
2023-03-05T03:13:11.258Z,85.94
2023-03-05T03:16:17.009Z,86.10
2023-03-05T03:19:19.766Z,85.93
2023-03-05T03:22:22.692Z,86.12
2023-03-05T03:25:25.302Z,86.16
2023-03-05T03:28:28.356Z,86.04
2023-03-05T03:31:30.949Z,86.26
2023-03-05T03:34:33.973Z,86.91
2023-03-05T03:37:36.645Z,87.34
2023-03-05T03:40:41.787Z,86.90
2023-03-05T03:43:44.406Z,87.63
2023-03-05T03:46:49.102Z,87.86
2023-03-05T03:49:55.164Z,88.05
2023-03-05T03:52:58.053Z,87.75
2023-03-05T03:56:00.654Z,88.71
2023-03-05T03:59:04.156Z,88.46
2023-03-05T04:02:06.922Z,88.38
2023-03-05T04:05:10.132Z,88.27
2023-03-05T04:08:12.850Z,87.15
2023-03-05T04:11:16.130Z,86.63
2023-03-05T04:14:19.142Z,86.61
2023-03-05T04:17:22.061Z,86.75
2023-03-05T04:20:25.003Z,87.07
2023-03-05T04:23:27.984Z,87.89
2023-03-05T04:26:30.577Z,87.86
2023-03-05T04:29:34.639Z,88.10
2023-03-05T04:32:37.521Z,87.64
2023-03-05T04:35:40.535Z,87.95
2023-03-05T04:38:43.373Z,87.65
2023-03-05T04:41:47.091Z,87.13
2023-03-05T04:44:50.403Z,87.76
2023-03-05T04:47:53.349Z,87.11
2023-03-05T04:50:57.997Z,87.37
2023-03-05T04:54:01.055Z,87.28
2023-03-05T04:57:03.935Z,87.54
2023-03-05T05:00:16.777Z,87.71
2023-03-05T05:03:19.497Z,87.47
2023-03-05T05:06:22.510Z,87.67
2023-03-05T05:09:26.344Z,86.88
2023-03-05T05:12:30.825Z,87.67
2023-03-05T05:15:33.486Z,87.99
2023-03-05T05:18:36.530Z,87.90
2023-03-05T05:21:39.341Z,87.91
2023-03-05T05:24:42.334Z,87.79
2023-03-05T05:27:45.042Z,87.25
2023-03-05T05:30:47.963Z,87.32
2023-03-05T05:33:50.685Z,87.31
2023-03-05T05:36:53.775Z,87.59
2023-03-05T05:39:56.445Z,88.33
2023-03-05T05:42:59.375Z,88.97
2023-03-05T05:46:04.189Z,88.86
2023-03-05T05:49:07.185Z,88.01
2023-03-05T05:52:10.010Z,88.12
2023-03-05T05:55:13.626Z,87.68
2023-03-05T05:58:16.332Z,87.15
2023-03-05T06:01:19.531Z,86.00
2023-03-05T06:04:22.658Z,86.25
2023-03-05T06:07:25.216Z,86.17
2023-03-05T06:10:28.370Z,85.01
2023-03-05T06:13:31.008Z,84.46
2023-03-05T06:16:35.444Z,84.62
2023-03-05T06:19:38.041Z,84.40
2023-03-05T06:22:41.366Z,83.28
2023-03-05T06:25:43.914Z,83.37
2023-03-05T06:28:46.861Z,83.10
2023-03-05T06:31:49.511Z,81.82
2023-03-05T06:34:52.515Z,80.92
2023-03-05T06:37:55.136Z,81.66
2023-03-05T06:41:02.210Z,80.90
2023-03-05T06:44:05.462Z,80.00
2023-03-05T06:47:10.636Z,79.72
2023-03-05T06:50:13.545Z,79.82
2023-03-05T06:53:16.497Z,79.47
2023-03-05T06:56:20.161Z,78.38
2023-03-05T06:59:23.534Z,80.28
2023-03-05T07:02:26.279Z,78.92
2023-03-05T07:05:29.304Z,77.40
2023-03-05T07:08:32.651Z,77.22
2023-03-05T07:11:35.802Z,75.86
2023-03-05T07:14:39.130Z,75.42
2023-03-05T07:17:42.069Z,74.87
2023-03-05T07:20:44.780Z,74.62
2023-03-05T07:23:48.185Z,73.80
2023-03-05T07:26:50.851Z,73.43
2023-03-05T07:29:53.868Z,73.96
2023-03-05T07:32:56.506Z,73.42
2023-03-05T07:35:59.576Z,73.61
2023-03-05T07:39:05.013Z,72.10
2023-03-05T07:42:08.014Z,72.04
2023-03-05T07:45:19.450Z,72.21
2023-03-05T07:48:22.468Z,70.74
2023-03-05T07:51:26.892Z,70.13
2023-03-05T07:54:29.879Z,69.76
2023-03-05T07:57:32.589Z,70.26
2023-03-05T08:00:35.561Z,70.07
2023-03-05T08:03:39.416Z,70.23
2023-03-05T08:06:42.391Z,69.07
2023-03-05T08:09:45.313Z,68.36
2023-03-05T08:12:47.937Z,69.45
2023-03-05T08:15:50.794Z,68.11
2023-03-05T08:18:57.941Z,69.41
2023-03-05T08:22:00.942Z,66.55
2023-03-05T08:25:04.532Z,68.33
2023-03-05T08:28:07.442Z,67.03
2023-03-05T08:31:11.402Z,65.82
2023-03-05T08:34:14.293Z,64.77
2023-03-05T08:37:16.862Z,65.42
2023-03-05T08:40:20.478Z,64.40
2023-03-05T08:43:23.200Z,63.30
2023-03-05T08:46:26.151Z,63.13
2023-03-05T08:49:29.096Z,62.47
2023-03-05T08:52:31.989Z,64.12
2023-03-05T08:55:35.084Z,63.52
2023-03-05T08:58:38.076Z,62.30
2023-03-05T09:01:40.829Z,61.96
2023-03-05T09:04:44.003Z,60.27
2023-03-05T09:07:46.702Z,60.20
2023-03-05T09:10:49.819Z,58.19
2023-03-05T09:13:52.385Z,58.24
2023-03-05T09:16:56.585Z,58.71
2023-03-05T09:19:59.286Z,59.56
2023-03-05T09:23:02.584Z,57.71
2023-03-05T09:26:06.677Z,58.18
2023-03-05T09:29:09.948Z,58.39
2023-03-05T09:32:12.631Z,58.20
2023-03-05T09:35:15.587Z,57.73
2023-03-05T09:38:19.380Z,59.17
2023-03-05T09:41:53.286Z,58.73
2023-03-05T09:45:17.584Z,57.98
2023-03-05T09:48:44.372Z,57.92
2023-03-05T09:51:52.130Z,57.58
2023-03-05T09:54:57.787Z,59.06
2023-03-05T09:58:11.395Z,58.98
2023-03-05T10:01:39.000Z,57.64
2023-03-05T10:05:00.364Z,59.41
2023-03-05T10:08:05.321Z,57.61
2023-03-05T10:11:22.344Z,58.13
2023-03-05T10:14:35.006Z,59.56
2023-03-05T10:17:55.696Z,59.67
2023-03-05T10:21:22.192Z,61.13
2023-03-05T10:24:57.215Z,60.65
2023-03-05T10:28:18.017Z,60.16
2023-03-05T10:31:39.542Z,59.93
2023-03-05T10:34:54.271Z,59.99
2023-03-05T10:38:09.266Z,61.19
2023-03-05T10:41:38.792Z,58.51
2023-03-05T10:45:01.721Z,59.00
2023-03-05T10:48:55.649Z,60.91
2023-03-05T10:52:09.836Z,59.22
2023-03-05T10:55:21.488Z,60.05
2023-03-05T10:58:25.513Z,59.26
2023-03-05T11:01:31.026Z,58.47
2023-03-05T11:04:39.880Z,58.46
2023-03-05T11:07:42.550Z,58.72
2023-03-05T11:10:45.810Z,57.98
2023-03-05T11:13:48.276Z,56.95
2023-03-05T11:16:51.262Z,57.94
2023-03-05T11:19:54.238Z,57.48
2023-03-05T11:23:17.202Z,57.50
2023-03-05T11:26:23.281Z,56.66
2023-03-05T11:29:31.561Z,58.07
2023-03-05T11:32:34.393Z,57.79
2023-03-05T11:35:39.935Z,56.94
2023-03-05T11:38:58.837Z,57.39
2023-03-05T11:42:06.947Z,55.95
2023-03-05T11:45:19.430Z,56.15
2023-03-05T11:48:28.673Z,55.90
2023-03-05T11:51:57.888Z,54.73
2023-03-05T11:55:16.093Z,54.95
2023-03-05T11:58:50.057Z,55.42
2023-03-05T12:01:55.608Z,53.88
2023-03-05T12:05:00.135Z,52.28
2023-03-05T12:08:03.405Z,51.49
2023-03-05T12:11:16.132Z,52.67
2023-03-05T12:14:44.781Z,51.86
2023-03-05T12:17:54.615Z,53.01
2023-03-05T12:21:08.288Z,53.71
2023-03-05T12:24:26.018Z,50.65
2023-03-05T12:27:37.010Z,51.12
2023-03-05T12:30:43.481Z,51.27
2023-03-05T12:33:46.783Z,51.10
2023-03-05T12:36:49.701Z,52.11
2023-03-05T12:40:00.910Z,51.62
2023-03-05T12:43:23.338Z,49.70
2023-03-05T12:46:29.152Z,50.48
2023-03-05T12:49:39.776Z,51.17
2023-03-05T12:52:46.046Z,50.54
2023-03-05T12:56:01.105Z,49.16
2023-03-05T12:59:04.449Z,49.22
2023-03-05T13:02:21.594Z,47.73
2023-03-05T13:05:37.494Z,47.64
2023-03-05T13:08:40.511Z,49.10
2023-03-05T13:11:48.139Z,49.08
2023-03-05T13:15:04.596Z,47.40
2023-03-05T13:18:20.523Z,48.63
2023-03-05T13:21:30.838Z,48.02
2023-03-05T13:24:33.536Z,47.88
2023-03-05T13:27:36.525Z,48.36
2023-03-05T13:30:44.407Z,49.65
2023-03-05T13:33:57.014Z,49.01
2023-03-05T13:37:07.561Z,49.19
2023-03-05T13:40:23.962Z,48.98
2023-03-05T13:43:26.896Z,49.67
2023-03-05T13:46:42.179Z,50.05
2023-03-05T13:49:47.267Z,50.83
2023-03-05T13:52:50.661Z,50.73
2023-03-05T13:55:59.767Z,52.02
2023-03-05T13:59:02.766Z,51.43
2023-03-05T14:02:17.315Z,50.73
2023-03-05T14:05:21.339Z,50.35
2023-03-05T14:08:26.640Z,51.77
2023-03-05T14:11:30.141Z,50.98
2023-03-05T14:14:37.664Z,51.01
2023-03-05T14:17:42.842Z,50.46
2023-03-05T14:21:05.703Z,50.88
2023-03-05T14:24:15.118Z,51.88
2023-03-05T14:27:21.500Z,51.46
2023-03-05T14:30:25.630Z,51.91
2023-03-05T14:33:31.254Z,54.18
2023-03-05T14:36:34.936Z,53.25
2023-03-05T14:39:46.243Z,53.00
2023-03-05T14:43:01.281Z,53.78
2023-03-05T14:46:04.808Z,54.32
2023-03-05T14:49:08.516Z,54.53
2023-03-05T14:52:17.188Z,54.33
2023-03-05T14:55:24.084Z,54.12
2023-03-05T14:58:35.725Z,54.86
2023-03-05T15:01:39.306Z,53.81
2023-03-05T15:04:41.951Z,54.25
2023-03-05T15:07:46.119Z,54.20
2023-03-05T15:10:50.390Z,54.34
2023-03-05T15:13:53.634Z,53.66
2023-03-05T15:16:56.461Z,54.25
2023-03-05T15:19:59.684Z,53.78
2023-03-05T15:23:02.616Z,53.72
2023-03-05T15:26:07.665Z,54.59
2023-03-05T15:29:10.626Z,55.35
2023-03-05T15:32:14.194Z,54.13
2023-03-05T15:35:17.731Z,54.67
2023-03-05T15:38:21.274Z,54.21
2023-03-05T15:41:24.082Z,54.76
2023-03-05T15:44:27.913Z,55.50
2023-03-05T15:47:33.380Z,54.90
2023-03-05T15:50:36.803Z,55.18
2023-03-05T15:53:39.735Z,55.66
2023-03-05T15:56:42.891Z,55.57
2023-03-05T15:59:46.166Z,56.29
2023-03-05T16:02:49.121Z,55.59
2023-03-05T16:05:53.851Z,56.96
2023-03-05T16:09:02.365Z,56.54
2023-03-05T16:12:10.183Z,55.93
2023-03-05T16:15:16.706Z,56.61
2023-03-05T16:18:21.477Z,55.79
2023-03-05T16:21:24.710Z,56.13
2023-03-05T16:24:27.970Z,55.36
2023-03-05T16:27:31.031Z,55.48
2023-03-05T16:30:34.325Z,55.20
2023-03-05T16:33:38.240Z,58.41
2023-03-05T16:36:48.509Z,56.94
2023-03-05T16:39:51.579Z,57.23
2023-03-05T16:42:54.724Z,58.73
2023-03-05T16:45:57.777Z,59.41
2023-03-05T16:49:00.973Z,61.12
2023-03-05T16:52:17.785Z,61.29
2023-03-05T16:55:21.807Z,60.62
2023-03-05T16:58:24.682Z,58.68
2023-03-05T17:01:30.323Z,60.10
2023-03-05T17:04:33.642Z,61.46
2023-03-05T17:07:36.834Z,62.35
2023-03-05T17:10:39.887Z,61.57
2023-03-05T17:13:43.629Z,61.39
2023-03-05T17:16:46.746Z,62.38
2023-03-05T17:19:50.086Z,61.57
2023-03-05T17:22:53.139Z,61.43
2023-03-05T17:25:56.582Z,61.96
2023-03-05T17:29:00.171Z,62.24
2023-03-05T17:32:03.936Z,61.73
2023-03-05T17:35:08.192Z,61.73
2023-03-05T17:38:11.451Z,61.81
2023-03-05T17:41:15.885Z,61.88
2023-03-05T17:44:19.167Z,64.75
2023-03-05T17:47:23.556Z,67.15
2023-03-05T17:50:26.939Z,68.34
2023-03-05T17:53:30.339Z,69.68
2023-03-05T17:56:33.690Z,69.55
2023-03-05T17:59:36.788Z,68.87
2023-03-05T18:02:40.694Z,69.36
2023-03-05T18:05:44.392Z,66.36
2023-03-05T18:08:48.324Z,65.76
2023-03-05T18:11:52.012Z,67.60
2023-03-05T18:14:54.930Z,68.66
2023-03-05T18:17:58.762Z,67.47
2023-03-05T18:21:02.492Z,68.18
2023-03-05T18:24:06.449Z,68.56
2023-03-05T18:27:09.543Z,69.00
2023-03-05T18:30:12.959Z,67.93
2023-03-05T18:33:20.292Z,66.85
2023-03-05T18:36:23.558Z,66.16
2023-03-05T18:39:29.280Z,66.14
2023-03-05T18:42:32.486Z,67.08
2023-03-05T18:45:36.090Z,68.20
2023-03-05T18:48:39.444Z,69.01
2023-03-05T18:51:42.984Z,68.43
2023-03-05T18:54:46.215Z,67.54
2023-03-05T18:57:49.366Z,68.84
2023-03-05T19:00:52.550Z,73.46
2023-03-05T19:03:56.103Z,73.88
2023-03-05T19:06:59.426Z,73.75
2023-03-05T19:10:07.317Z,73.09
2023-03-05T19:13:35.836Z,72.72
2023-03-05T19:16:43.935Z,71.93
2023-03-05T19:19:54.629Z,72.32
2023-03-05T19:22:59.553Z,73.14
2023-03-05T19:26:03.901Z,71.73
2023-03-05T19:29:08.372Z,70.66
2023-03-05T19:32:14.731Z,71.83
2023-03-05T19:35:18.275Z,70.91
2023-03-05T19:38:22.826Z,69.48
2023-03-05T19:41:27.729Z,69.91
2023-03-05T19:44:32.850Z,69.23
2023-03-05T19:47:35.844Z,68.50
2023-03-05T19:50:40.969Z,69.42
2023-03-05T19:53:44.205Z,71.55
2023-03-05T19:56:48.318Z,72.76
2023-03-05T19:59:54.943Z,75.28
2023-03-05T20:02:58.351Z,74.20
2023-03-05T20:06:02.140Z,74.95
2023-03-05T20:09:07.914Z,74.73
2023-03-05T20:12:11.740Z,73.80
2023-03-05T20:15:14.995Z,74.35
2023-03-05T20:18:19.198Z,74.77
2023-03-05T20:21:25.315Z,74.58
2023-03-05T20:24:28.929Z,74.37
2023-03-05T20:27:33.768Z,74.29
2023-03-05T20:30:37.107Z,72.32
2023-03-05T20:33:40.223Z,71.42
2023-03-05T20:36:43.816Z,70.75
2023-03-05T20:39:46.695Z,70.82
2023-03-05T20:42:52.642Z,70.20
2023-03-05T20:45:57.512Z,70.33
2023-03-05T20:49:02.823Z,71.65
2023-03-05T20:52:05.452Z,73.13
2023-03-05T20:55:10.018Z,73.83
2023-03-05T20:58:13.354Z,74.19
2023-03-05T21:01:17.330Z,75.19
2023-03-05T21:04:20.524Z,76.74
2023-03-05T21:07:25.927Z,73.96
2023-03-05T21:10:30.629Z,74.00
2023-03-05T21:13:33.859Z,72.94
2023-03-05T21:16:36.781Z,72.45
2023-03-05T21:19:39.990Z,73.54
2023-03-05T21:22:43.017Z,75.89
2023-03-05T21:25:46.400Z,76.17
2023-03-05T21:28:49.419Z,76.58
2023-03-05T21:31:52.389Z,76.33
2023-03-05T21:34:55.234Z,77.02
2023-03-05T21:38:00.678Z,76.72
2023-03-05T21:41:04.488Z,76.79
2023-03-05T21:44:07.517Z,77.15
2023-03-05T21:47:10.444Z,78.15
2023-03-05T21:50:15.539Z,78.26
2023-03-05T21:53:19.911Z,77.70
2023-03-05T21:56:25.195Z,77.28
2023-03-05T21:59:28.145Z,77.21
2023-03-05T22:02:31.396Z,76.74
2023-03-05T22:05:34.329Z,76.33
2023-03-05T22:08:37.033Z,75.06
2023-03-05T22:11:43.907Z,73.87
2023-03-05T22:14:46.549Z,74.37
2023-03-05T22:17:50.277Z,75.16
2023-03-05T22:20:53.922Z,75.41
2023-03-05T22:23:58.378Z,75.69
2023-03-05T22:27:02.051Z,75.56
2023-03-05T22:30:14.196Z,77.87
2023-03-05T22:33:16.872Z,78.75
2023-03-05T22:36:20.461Z,79.62
2023-03-05T22:39:23.023Z,80.24
2023-03-05T22:42:26.059Z,79.52
2023-03-05T22:45:29.122Z,78.89
2023-03-05T22:48:32.027Z,78.03
2023-03-05T22:51:34.629Z,76.72
2023-03-05T22:54:37.534Z,77.34
2023-03-05T22:57:40.990Z,77.82
2023-03-05T23:00:44.156Z,77.52
2023-03-05T23:04:10.375Z,77.91
2023-03-05T23:07:32.855Z,77.32
2023-03-05T23:10:35.520Z,76.31
2023-03-05T23:13:40.541Z,76.35
2023-03-05T23:16:43.101Z,76.41
2023-03-05T23:19:46.249Z,76.90
2023-03-05T23:22:49.798Z,77.37
2023-03-05T23:25:52.937Z,77.91
2023-03-05T23:28:55.561Z,77.96
2023-03-05T23:31:58.528Z,78.13
2023-03-05T23:35:01.209Z,77.83
2023-03-05T23:38:08.399Z,79.52
2023-03-05T23:41:11.048Z,81.18
2023-03-05T23:44:13.948Z,82.27
2023-03-05T23:47:16.487Z,82.48
2023-03-05T23:50:25.296Z,81.90
2023-03-05T23:53:31.281Z,81.05
2023-03-05T23:56:34.223Z,81.33
2023-03-05T23:59:37.017Z,81.41
